• Join FlightAware (Why Join?)
  • Login
  • US Flag 
12:43AM EDT


 

Airport Tracker/Info


-or-


 

Live Flight TrackerFlight Track Log ✈ AAY811 ✈ 28-Aug-2014 ✈ KAVL - KPIE

Flight Track Log - Related Links

Times and Time Zones

All times are in EDT time to prevent confusion due to time zone crossing. See the AAY811 flight status page for this flight to view local times or setup timezone preferences in your user account.

Time Position Orientation Groundspeed Altitude Reporting Facility
EDT Latitude Longitude Course Direction KTS MPH feet Rate Location/Type
09:05PM 35.2872 -82.4994 181° South 278 320 6,700  Level Atlanta Center
09:06PM 35.2097 -82.4806 169° South 292 336 9,500 2,040 Climbing Atlanta Center
09:07PM 35.1303 -82.4617 169° South 307 353 10,800 1,980 Climbing Atlanta Center
09:08PM 35.0157 -82.5015 181° South  Level Estimated
09:11PM 34.6562 -82.3611 170° South 409 471 20,500  Level FlightAware ADS-B (KCDN)
09:13PM 34.4160 -82.3103 170° South 422 486 23,700 1,620 Climbing FlightAware ADS-B (KCDN)
09:15PM 34.2760 -82.2808 170° South 422 486 26,100 1,380 Climbing FlightAware ADS-B (KCDN)
09:15PM 34.1985 -82.2671 170° South 422 486 26,500 900 Climbing FlightAware ADS-B (KCDN)
09:18PM 33.8230 -82.2968 184° South 457 526 29,500 960 Climbing FlightAware ADS-B (KCDN)
09:19PM 33.6981 -82.3069 184° South 464 534 30,400 840 Climbing FlightAware ADS-B (KCDN)
09:20PM 33.6329 -82.3121 184° South 472 543 30,800 780 Climbing FlightAware ADS-B (KCDN)
09:21PM 33.5131 -82.3247 184° South 464 534 31,600 1,020 Climbing Atlanta Center
09:22PM 33.3794 -82.3347 184° South 469 540 32,800 1,200 Climbing Atlanta Center
09:23PM 33.2669 -82.3419 183° South 469 540 34,000 1,020 Climbing Atlanta Center
09:24PM 33.1356 -82.3519 184° South 469 540 34,900 960 Climbing Atlanta Center
09:25PM 33.0083 -82.3619 184° South 469 540 36,000 1,020 Climbing Atlanta Center
09:26PM 32.8811 -82.3692 183° South 464 534 37,000 840 Climbing Atlanta Center
09:27PM 32.7539 -82.3817 185° South 464 534 37,700 360 Climbing Atlanta Center
09:29PM 32.5206 -82.3972 183° South 464 534 38,000 60 Climbing Jacksonville Center
09:30PM 32.3953 -82.4103 185° South 464 534 38,000  Level Jacksonville Center
09:31PM 32.2700 -82.4183 183° South 464 534 38,000  Level Jacksonville Center
09:32PM 32.1447 -82.4264 183° South 458 527 38,000  Level Jacksonville Center
09:33PM 32.0175 -82.4269 180° South 458 527 38,000  Level Jacksonville Center
09:34PM 31.8900 -82.4203 177° South 458 527 38,000  Level Jacksonville Center
09:40PM 31.1179 -82.4007 179° South 449 517 38,000  Level FlightAware ADS-B (KGNV)
09:41PM 31.0068 -82.3976 179° South 449 517 38,000  Level FlightAware ADS-B (KGNV)
09:41PM 30.9134 -82.3949 179° South 450 518 38,000  Level FlightAware ADS-B (KGNV)
09:42PM 30.8092 -82.3921 179° South 450 518 38,000  Level FlightAware ADS-B (KGNV)
09:43PM 30.7277 -82.3898 179° South 449 517 38,000  Level FlightAware ADS-B (KGNV)
09:44PM 30.5461 -82.3847 179° South 449 517 38,000  Level FlightAware ADS-B (KGNV)
09:45PM 30.4551 -82.3821 179° South 450 518 38,000 -120 Level FlightAware ADS-B (KGNV)
09:46PM 30.3052 -82.3778 179° South 450 518 37,800 -480 Descending FlightAware ADS-B (KMCO)
09:47PM 30.2206 -82.3755 179° South 455 524 37,200 -1,020 Descending FlightAware ADS-B (KMCO)
09:48PM 30.1379 -82.3732 179° South 464 534 36,500 -1,020 Descending FlightAware ADS-B (KGNV)
09:48PM 30.0524 -82.3710 179° South 462 532 35,900 -1,020 Descending FlightAware ADS-B (KGNV)
09:49PM 29.9645 -82.3686 179° South 464 534 35,200 -1,020 Descending FlightAware ADS-B (KGNV)
09:50PM 29.8844 -82.3664 179° South 467 537 34,600 -1,260 Descending FlightAware ADS-B (KGNV)
09:50PM 29.7879 -82.3636 179° South 462 532 33,500 -2,940 Descending FlightAware ADS-B (KMCO)
09:51PM 29.7014 -82.3613 179° South 455 524 30,600 -4,380 Descending FlightAware ADS-B (KMCO)
09:52PM 29.6239 -82.3591 179° South 446 513 27,900 -4,440 Descending FlightAware ADS-B (KGNV)
09:52PM 29.5983 -82.3584 177° South 447 514 26,800 -2,280 Descending FlightAware ADS-B (KMCO)
09:52PM 29.5189 -82.3499 174° South 448 516 26,000 -720 Descending FlightAware ADS-B (KMCO)
09:53PM 29.4587 -82.3427 174° South 451 519 26,000  Level FlightAware ADS-B (KMCO)
09:53PM 29.3921 -82.3348 174° South 449 517 26,000 -420 Level FlightAware ADS-B (KGNV)
09:54PM 29.3253 -82.3268 174° South 449 517 25,600 -1,800 Descending FlightAware ADS-B (KMCO)
09:55PM 29.2421 -82.3169 174° South 440 506 23,900 -3,000 Descending FlightAware ADS-B (KGNV)
09:55PM 29.1793 -82.3093 174° South 429 494 22,000 -4,200 Descending FlightAware ADS-B (KGNV)
09:56PM 29.0988 -82.2995 174° South 422 486 18,900 -4,260 Descending FlightAware ADS-B (KGNV)
09:56PM 29.0398 -82.2927 174° South 406 467 16,900 -4,140 Descending FlightAware ADS-B (KGNV)
09:57PM 28.9697 -82.2846 174° South 404 465 14,000 -3,300 Descending FlightAware ADS-B (KGNV)
09:58PM 28.9048 -82.2769 174° South 387 445 13,000 -840 Descending FlightAware ADS-B (KGNV)
09:58PM 28.8377 -82.2689 174° South 335 386 13,000  Level FlightAware ADS-B (KGNV)
09:59PM 28.7935 -82.2638 174° South 310 357 13,000  Level FlightAware ADS-B (KGNV)
09:59PM 28.7819 -82.2624 179° South 305 351 13,000 -420 Level FlightAware ADS-B (KGNV)
10:00PM 28.6860 -82.2569 179° South 304 350 12,500 -960 Descending FlightAware ADS-B (KGNV)
10:01PM 28.6776 -82.2567 179° South 297 342 11,900 -1,020 Descending FlightAware ADS-B (KMCO)
10:01PM 28.6157 -82.2565 212° Southwest 291 335 11,200 -960 Descending FlightAware ADS-B (KMCO)
10:02PM 28.5167 -82.3167 212° Southwest 290 334 10,300 -900 Descending Tampa TRACON
10:03PM 28.4333 -82.3833 215° Southwest 287 330 9,300 -960 Descending Tampa TRACON
10:04PM 28.3667 -82.4333 213° Southwest 282 325 8,300 -1,020 Descending Tampa TRACON
10:05PM 28.3167 -82.4667 210° Southwest 282 325 7,400 -1,020 Descending Tampa TRACON
10:06PM 28.2500 -82.5167 213° Southwest 279 321 6,400 -1,020 Descending Tampa TRACON
10:07PM 28.1833 -82.5667 213° Southwest 270 311 5,400 -1,020 Descending Tampa TRACON
10:08PM 28.1333 -82.6000 210° Southwest 242 278 4,500 -1,080 Descending Tampa TRACON
10:09PM 28.0833 -82.6333 210° Southwest 217 250 3,400 -1,200 Descending Tampa TRACON
10:10PM 28.0333 -82.6500 196° South 165 190 2,200 -900 Descending Tampa TRACON
10:11PM 28.0000 -82.6833 221° Southwest 154 177 1,600 -720 Descending Tampa TRACON
10:12PM 27.9667 -82.7000 204° Southwest 131 151 800 -540 Descending Tampa TRACON
10:14PM 27.8992 -82.6922 174° South 148 170 300 -360 Descending Miami Center
10:16PM 27.9000 -82.6833 North  Level FlightAware Approximate